createdAt,value
2023-06-11T00:01:28.499Z,2.00
2023-06-11T00:03:55.839Z,2.03
2023-06-11T00:07:38.040Z,1.85
2023-06-11T00:10:08.503Z,1.83
2023-06-11T00:12:35.347Z,2.28
2023-06-11T00:15:03.522Z,1.90
2023-06-11T00:17:33.758Z,2.17
2023-06-11T00:20:02.729Z,2.17
2023-06-11T00:22:32.611Z,2.33
2023-06-11T00:24:59.418Z,2.33
2023-06-11T00:27:26.250Z,2.10
2023-06-11T00:29:54.964Z,1.90
2023-06-11T00:32:21.875Z,2.10
2023-06-11T00:34:48.815Z,2.20
2023-06-11T00:37:15.719Z,2.10
2023-06-11T00:39:42.534Z,1.95
2023-06-11T00:42:11.277Z,2.10
2023-06-11T00:44:38.160Z,2.10
2023-06-11T00:47:05.370Z,1.92
2023-06-11T00:49:33.174Z,2.00
2023-06-11T00:52:00.217Z,2.00
2023-06-11T00:54:27.025Z,2.10
2023-06-11T00:56:54.296Z,2.20
2023-06-11T00:59:21.413Z,2.10
2023-06-11T01:02:22.450Z,2.20
2023-06-11T01:04:54.416Z,2.20
2023-06-11T01:07:23.827Z,2.10
2023-06-11T01:09:51.763Z,2.40
2023-06-11T01:12:18.551Z,2.40
2023-06-11T01:14:45.350Z,2.38
2023-06-11T01:17:17.020Z,2.03
2023-06-11T01:19:55.777Z,2.20
2023-06-11T01:22:34.879Z,2.30
2023-06-11T01:25:18.480Z,2.30
2023-06-11T01:27:51.234Z,2.35
2023-06-11T01:30:21.967Z,2.17
2023-06-11T01:32:57.441Z,2.25
2023-06-11T01:35:31.501Z,2.10
2023-06-11T01:37:59.160Z,2.40
2023-06-11T01:40:34.854Z,2.13
2023-06-11T01:43:03.400Z,2.10
2023-06-11T01:45:38.231Z,2.10
2023-06-11T01:50:34.513Z,2.05
2023-06-11T01:53:01.759Z,2.20
2023-06-11T01:55:29.343Z,2.22
2023-06-11T01:57:56.621Z,2.05
2023-06-11T02:00:24.108Z,2.10
2023-06-11T02:02:51.393Z,2.15
2023-06-11T02:05:24.943Z,2.20
2023-06-11T02:07:52.613Z,2.00
2023-06-11T02:10:19.455Z,2.08
2023-06-11T02:12:46.737Z,2.17
2023-06-11T02:15:14.354Z,2.08
2023-06-11T02:17:41.947Z,2.28
2023-06-11T02:20:09.618Z,2.13
2023-06-11T02:22:36.615Z,2.25
2023-06-11T02:25:03.570Z,2.35
2023-06-11T02:27:31.301Z,2.28
2023-06-11T02:30:00.864Z,2.30
2023-06-11T02:32:27.968Z,2.28
2023-06-11T02:34:56.288Z,2.40
2023-06-11T02:37:23.069Z,2.33
2023-06-11T02:39:50.052Z,2.30
2023-06-11T02:42:16.859Z,2.35
2023-06-11T02:44:43.598Z,2.30
2023-06-11T02:47:10.534Z,2.22
2023-06-11T02:49:37.298Z,2.40
2023-06-11T02:52:04.389Z,2.10
2023-06-11T02:54:31.132Z,2.67
2023-06-11T02:56:58.026Z,2.28
2023-06-11T02:59:24.809Z,2.50
2023-06-11T03:01:51.743Z,2.42
2023-06-11T03:04:19.102Z,2.15
2023-06-11T03:06:45.985Z,2.45
2023-06-11T03:09:13.196Z,2.40
2023-06-11T03:11:40.221Z,2.47
2023-06-11T03:14:07.036Z,2.50
2023-06-11T03:16:34.502Z,2.50
2023-06-11T03:19:01.496Z,2.60
2023-06-11T03:21:28.389Z,2.53
2023-06-11T03:23:55.804Z,2.58
2023-06-11T03:26:22.709Z,2.50
2023-06-11T03:28:50.195Z,2.58
2023-06-11T03:31:19.479Z,2.58
2023-06-11T03:33:48.141Z,2.75
2023-06-11T03:36:16.137Z,2.42
2023-06-11T03:38:42.978Z,2.42
2023-06-11T03:41:11.983Z,2.75
2023-06-11T03:43:39.612Z,2.50
2023-06-11T03:46:06.916Z,2.72
2023-06-11T03:48:34.222Z,2.88
2023-06-11T03:51:01.358Z,2.63
2023-06-11T03:53:28.216Z,2.45
2023-06-11T03:55:55.098Z,2.30
2023-06-11T03:58:22.492Z,2.40
2023-06-11T04:00:49.542Z,2.42
2023-06-11T04:03:16.543Z,2.30
2023-06-11T04:05:43.531Z,2.53
2023-06-11T04:08:10.922Z,2.67
2023-06-11T04:10:38.644Z,2.55
2023-06-11T04:13:05.576Z,2.42
2023-06-11T04:15:33.356Z,2.50
2023-06-11T04:18:04.902Z,2.53
2023-06-11T04:20:32.405Z,2.38
2023-06-11T04:22:59.916Z,2.63
2023-06-11T04:25:26.801Z,2.58
2023-06-11T04:27:54.815Z,2.88
2023-06-11T04:30:22.512Z,2.28
2023-06-11T04:32:56.349Z,2.40
2023-06-11T04:35:26.107Z,2.70
2023-06-11T04:37:54.349Z,2.55
2023-06-11T04:40:26.551Z,2.50
2023-06-11T04:42:54.964Z,2.67
2023-06-11T04:45:23.183Z,2.60
2023-06-11T04:47:51.373Z,2.65
2023-06-11T04:50:21.807Z,3.10
2023-06-11T04:52:53.169Z,2.58
2023-06-11T04:55:26.357Z,2.55
2023-06-11T04:57:55.872Z,2.75
2023-06-11T05:00:23.780Z,2.60
2023-06-11T05:02:51.464Z,2.40
2023-06-11T05:05:18.625Z,2.90
2023-06-11T05:07:45.523Z,2.55
2023-06-11T05:10:12.612Z,2.70
2023-06-11T05:12:39.558Z,2.70
2023-06-11T05:15:07.434Z,2.60
2023-06-11T05:17:35.420Z,2.40
2023-06-11T05:20:02.801Z,2.70
2023-06-11T05:22:30.952Z,2.78
2023-06-11T05:24:57.823Z,2.72
2023-06-11T05:27:29.987Z,2.67
2023-06-11T05:29:58.171Z,2.80
2023-06-11T05:32:25.311Z,2.50
2023-06-11T05:34:52.328Z,3.30
2023-06-11T05:37:22.343Z,3.22
2023-06-11T05:39:49.195Z,3.35
2023-06-11T05:42:17.800Z,3.15
2023-06-11T05:44:45.152Z,2.65
2023-06-11T05:47:13.017Z,2.92
2023-06-11T05:49:39.927Z,3.38
2023-06-11T05:52:07.008Z,3.22
2023-06-11T05:54:33.979Z,2.40
2023-06-11T05:57:01.356Z,3.00
2023-06-11T05:59:29.037Z,2.63
2023-06-11T06:01:56.258Z,2.90
2023-06-11T06:04:23.533Z,2.60
2023-06-11T06:06:50.432Z,2.90
2023-06-11T06:09:17.665Z,2.88
2023-06-11T06:11:44.989Z,2.30
2023-06-11T06:14:11.934Z,2.55
2023-06-11T06:16:39.810Z,2.35
2023-06-11T06:19:10.467Z,2.55
2023-06-11T06:21:37.286Z,2.58
2023-06-11T06:24:04.673Z,2.58
2023-06-11T06:26:31.757Z,2.40
2023-06-11T06:28:59.329Z,2.10
2023-06-11T06:31:26.601Z,1.88
2023-06-11T06:33:54.068Z,2.00
2023-06-11T06:36:23.763Z,2.17
2023-06-11T06:38:52.198Z,1.98
2023-06-11T06:41:20.221Z,1.98
2023-06-11T06:43:47.240Z,2.00
2023-06-11T06:46:17.956Z,2.08
2023-06-11T06:48:45.120Z,1.80
2023-06-11T06:51:12.132Z,1.50
2023-06-11T06:53:42.322Z,1.38
2023-06-11T06:56:10.792Z,1.98
2023-06-11T06:58:38.376Z,1.80
2023-06-11T07:01:05.580Z,1.80
2023-06-11T07:03:34.796Z,1.70
2023-06-11T07:06:02.164Z,2.08
2023-06-11T07:08:29.258Z,1.90
2023-06-11T07:10:56.906Z,1.80
2023-06-11T07:13:39.734Z,1.65
2023-06-11T07:16:07.732Z,1.77
2023-06-11T07:18:36.358Z,1.85
2023-06-11T07:21:03.321Z,1.80
2023-06-11T07:23:31.329Z,1.70
2023-06-11T07:25:58.558Z,1.60
2023-06-11T07:28:29.257Z,1.95
2023-06-11T07:30:58.396Z,2.00
2023-06-11T07:33:25.917Z,1.90
2023-06-11T07:35:54.812Z,1.98
2023-06-11T07:38:23.188Z,2.00
2023-06-11T07:40:50.482Z,1.90
2023-06-11T07:43:17.648Z,2.10
2023-06-11T07:45:45.058Z,2.00
2023-06-11T07:48:12.388Z,2.00
2023-06-11T07:50:39.385Z,1.75
2023-06-11T07:53:06.314Z,2.10
2023-06-11T07:55:34.282Z,2.00
2023-06-11T07:58:01.178Z,2.05
2023-06-11T08:00:27.947Z,1.60
2023-06-11T08:02:54.955Z,1.70
2023-06-11T08:05:23.321Z,2.17
2023-06-11T08:07:50.473Z,2.30
2023-06-11T08:10:17.372Z,1.98
2023-06-11T08:12:44.438Z,1.70
2023-06-11T08:15:11.502Z,1.70
2023-06-11T08:17:39.892Z,2.17
2023-06-11T08:20:09.004Z,1.88
2023-06-11T08:22:36.373Z,1.50
2023-06-11T08:25:03.685Z,1.67
2023-06-11T08:27:30.619Z,1.48
2023-06-11T08:29:57.401Z,1.42
2023-06-11T08:32:25.117Z,1.52
2023-06-11T08:34:52.015Z,1.63
2023-06-11T08:37:18.951Z,1.35
2023-06-11T08:39:45.766Z,1.55
2023-06-11T08:42:13.874Z,1.90
2023-06-11T08:44:40.889Z,1.50
2023-06-11T08:47:08.259Z,1.67
2023-06-11T08:49:38.660Z,1.80
2023-06-11T08:52:06.340Z,1.65
2023-06-11T08:54:33.541Z,1.70
2023-06-11T08:57:00.707Z,1.80
2023-06-11T08:59:27.518Z,1.67
2023-06-11T09:01:54.515Z,1.58
2023-06-11T09:04:24.473Z,1.23
2023-06-11T09:06:59.345Z,1.23
2023-06-11T09:09:26.493Z,1.15
2023-06-11T09:11:53.499Z,1.30
2023-06-11T09:14:21.583Z,1.50
2023-06-11T09:16:49.687Z,1.80
2023-06-11T09:19:18.080Z,1.75
2023-06-11T09:21:52.326Z,1.40
2023-06-11T09:24:21.365Z,1.38
2023-06-11T09:26:56.669Z,1.30
2023-06-11T09:29:27.680Z,1.30
2023-06-11T09:32:23.939Z,1.33
2023-06-11T09:34:57.358Z,1.60
2023-06-11T09:37:24.520Z,1.60
2023-06-11T09:39:51.684Z,1.38
2023-06-11T09:42:28.384Z,1.40
2023-06-11T09:45:02.417Z,1.55
2023-06-11T09:47:32.951Z,1.45
2023-06-11T09:50:00.253Z,1.40
2023-06-11T09:52:28.120Z,1.30
2023-06-11T09:54:56.132Z,1.40
2023-06-11T09:57:23.181Z,1.33
2023-06-11T09:59:50.196Z,1.40
2023-06-11T10:02:17.049Z,1.70
2023-06-11T10:04:44.081Z,1.80
2023-06-11T10:07:12.198Z,1.67
2023-06-11T10:09:41.393Z,2.35
2023-06-11T10:12:08.910Z,1.93
2023-06-11T10:14:38.054Z,1.85
2023-06-11T10:17:09.448Z,1.60
2023-06-11T10:19:40.220Z,2.00
2023-06-11T10:22:07.471Z,1.30
2023-06-11T10:24:34.594Z,1.20
2023-06-11T10:27:13.805Z,2.42
2023-06-11T10:29:42.676Z,1.60
2023-06-11T10:32:20.913Z,1.40
2023-06-11T10:35:02.010Z,1.92
2023-06-11T10:37:33.463Z,1.80
2023-06-11T10:40:00.854Z,1.83
2023-06-11T10:42:34.979Z,1.50
2023-06-11T10:45:06.096Z,2.30
2023-06-11T10:47:42.714Z,2.00
2023-06-11T10:50:12.445Z,2.20
2023-06-11T10:53:07.990Z,2.03
2023-06-11T10:55:36.093Z,2.05
2023-06-11T10:58:03.442Z,1.85
2023-06-11T11:00:34.242Z,2.03
2023-06-11T11:03:04.878Z,2.00
2023-06-11T11:05:32.258Z,1.90
2023-06-11T11:08:02.292Z,2.40
2023-06-11T11:10:29.997Z,2.42
2023-06-11T11:12:56.892Z,2.38
2023-06-11T11:15:23.774Z,2.30
2023-06-11T11:17:51.441Z,2.10
2023-06-11T11:20:20.480Z,2.00
2023-06-11T11:22:55.674Z,1.73
2023-06-11T11:25:31.137Z,2.20
2023-06-11T11:27:58.813Z,2.00
2023-06-11T11:30:29.523Z,2.50
2023-06-11T11:32:58.014Z,2.45
2023-06-11T11:35:26.466Z,2.00
2023-06-11T11:37:55.765Z,2.00
2023-06-11T11:40:23.562Z,2.40
2023-06-11T11:42:58.079Z,2.47
2023-06-11T11:45:32.322Z,2.15
2023-06-11T11:48:04.096Z,1.60
2023-06-11T11:50:32.093Z,2.28
2023-06-11T11:53:06.835Z,1.60
2023-06-11T11:55:35.318Z,1.60
2023-06-11T11:58:07.104Z,2.25
2023-06-11T12:00:36.683Z,2.30
2023-06-11T12:03:11.050Z,1.80
2023-06-11T12:05:39.390Z,2.08
2023-06-11T12:08:07.576Z,2.05
2023-06-11T12:10:34.674Z,2.00
2023-06-11T12:13:02.403Z,2.33
2023-06-11T12:15:29.570Z,2.80
2023-06-11T12:17:56.480Z,2.00
2023-06-11T12:20:23.518Z,2.92
2023-06-11T12:22:51.571Z,2.00
2023-06-11T12:25:18.891Z,2.00
2023-06-11T12:27:45.882Z,1.67
2023-06-11T12:30:13.626Z,1.60
2023-06-11T12:32:41.976Z,1.50
2023-06-11T12:35:09.540Z,3.13
2023-06-11T12:37:37.528Z,2.50
2023-06-11T12:40:06.065Z,2.88
2023-06-11T12:42:34.282Z,2.10
2023-06-11T12:45:01.856Z,2.67
2023-06-11T12:47:28.806Z,2.10
2023-06-11T12:49:55.801Z,2.35
2023-06-11T12:52:22.668Z,2.30
2023-06-11T12:54:49.745Z,2.13
2023-06-11T12:57:16.785Z,1.80
2023-06-11T12:59:43.896Z,1.92
2023-06-11T13:02:11.746Z,1.90
2023-06-11T13:04:38.565Z,2.00
2023-06-11T13:07:05.709Z,2.00
2023-06-11T13:09:32.558Z,1.90
2023-06-11T13:11:59.749Z,1.90
2023-06-11T13:14:26.714Z,1.67
2023-06-11T13:16:55.731Z,2.17
2023-06-11T13:19:23.249Z,2.13
2023-06-11T13:21:50.116Z,2.13
2023-06-11T13:24:17.048Z,1.67
2023-06-11T13:26:44.152Z,2.28
2023-06-11T13:29:11.290Z,2.38
2023-06-11T13:31:40.586Z,2.28
2023-06-11T13:34:09.418Z,1.90
2023-06-11T13:36:37.583Z,1.95
2023-06-11T13:39:05.006Z,2.00
2023-06-11T13:41:31.733Z,2.30
2023-06-11T13:43:58.614Z,1.85
2023-06-11T13:46:25.671Z,3.08
2023-06-11T13:48:52.481Z,3.03
2023-06-11T13:51:20.801Z,2.58
2023-06-11T13:53:47.618Z,2.70
2023-06-11T13:56:15.214Z,2.13
2023-06-11T13:58:42.267Z,1.70
2023-06-11T14:01:09.119Z,1.67
2023-06-11T14:03:35.992Z,1.80
2023-06-11T14:06:03.972Z,2.00
2023-06-11T14:08:31.002Z,1.63
2023-06-11T14:10:57.998Z,1.85
2023-06-11T14:13:24.846Z,2.30
2023-06-11T14:15:52.202Z,2.80
2023-06-11T14:18:19.062Z,3.00
2023-06-11T14:20:46.005Z,3.40
2023-06-11T14:23:12.908Z,2.45
2023-06-11T14:25:39.727Z,3.00
2023-06-11T14:28:06.659Z,2.25
2023-06-11T14:30:33.622Z,2.53
2023-06-11T14:33:01.099Z,2.05
2023-06-11T14:35:27.978Z,2.00
2023-06-11T14:37:58.330Z,1.88
2023-06-11T14:40:26.807Z,2.00
2023-06-11T14:42:53.659Z,1.88
2023-06-11T14:45:22.391Z,1.83
2023-06-11T14:47:50.925Z,1.65
2023-06-11T14:50:17.777Z,2.03
2023-06-11T14:52:44.779Z,1.80
2023-06-11T14:55:11.529Z,2.60
2023-06-11T14:57:38.317Z,2.42
2023-06-11T15:00:05.876Z,2.95
2023-06-11T15:02:35.990Z,2.58
2023-06-11T15:05:04.168Z,2.20
2023-06-11T15:07:35.388Z,2.17
2023-06-11T15:10:05.336Z,1.98
2023-06-11T15:12:32.754Z,2.00
2023-06-11T15:15:02.038Z,1.80
2023-06-11T15:17:34.152Z,1.88
2023-06-11T15:20:01.211Z,1.60
2023-06-11T15:22:28.203Z,1.88
2023-06-11T15:24:55.065Z,2.33
2023-06-11T15:27:21.849Z,2.30
2023-06-11T15:29:48.882Z,2.30
2023-06-11T15:32:18.550Z,1.95
2023-06-11T15:34:45.666Z,1.85
2023-06-11T15:37:12.658Z,2.78
2023-06-11T15:39:39.439Z,3.38
2023-06-11T15:42:06.640Z,3.00
2023-06-11T15:44:33.540Z,2.75
2023-06-11T15:47:00.498Z,2.58
2023-06-11T15:49:27.313Z,2.90
2023-06-11T15:51:54.127Z,2.40
2023-06-11T15:54:20.973Z,2.22
2023-06-11T15:56:48.872Z,1.67
2023-06-11T15:59:16.185Z,1.80
2023-06-11T16:01:43.809Z,1.50
2023-06-11T16:04:14.398Z,2.70
2023-06-11T16:06:41.267Z,2.05
2023-06-11T16:09:09.162Z,1.73
2023-06-11T16:11:36.068Z,1.67
2023-06-11T16:14:02.859Z,1.70
2023-06-11T16:16:29.884Z,1.70
2023-06-11T16:18:56.955Z,2.53
2023-06-11T16:21:23.861Z,2.70
2023-06-11T16:23:50.990Z,3.25
2023-06-11T16:26:17.822Z,2.30
2023-06-11T16:28:44.637Z,1.85
2023-06-11T16:31:11.543Z,2.10
2023-06-11T16:33:51.882Z,2.95
2023-06-11T16:36:22.772Z,2.20
2023-06-11T16:38:49.741Z,2.30
2023-06-11T16:41:16.629Z,1.95
2023-06-11T16:43:43.668Z,1.77
2023-06-11T16:46:10.565Z,2.13
2023-06-11T16:48:37.517Z,2.40
2023-06-11T16:51:04.366Z,2.60
2023-06-11T16:53:31.208Z,2.45
2023-06-11T16:55:58.154Z,2.30
2023-06-11T16:58:25.229Z,2.10
2023-06-11T17:00:52.557Z,2.80
2023-06-11T17:03:19.781Z,2.10
2023-06-11T17:05:46.788Z,1.60
2023-06-11T17:08:14.338Z,2.53
2023-06-11T17:10:41.429Z,2.90
2023-06-11T17:13:08.306Z,2.42
2023-06-11T17:15:35.303Z,2.70
2023-06-11T17:18:02.227Z,2.47
2023-06-11T17:20:29.124Z,2.38
2023-06-11T17:22:55.986Z,2.30
2023-06-11T17:25:24.527Z,2.03
2023-06-11T17:27:51.792Z,2.00
2023-06-11T17:30:18.876Z,2.20
2023-06-11T17:32:45.768Z,1.92
2023-06-11T17:35:13.023Z,2.63
2023-06-11T17:37:40.046Z,2.10
2023-06-11T17:40:08.327Z,2.20
2023-06-11T17:42:35.248Z,1.50
2023-06-11T17:45:02.066Z,1.75
2023-06-11T17:47:28.883Z,1.80
2023-06-11T17:49:55.912Z,1.83
2023-06-11T17:52:22.689Z,1.95
2023-06-11T17:54:50.278Z,2.33
2023-06-11T17:57:17.163Z,2.00
2023-06-11T17:59:43.930Z,2.55
2023-06-11T18:02:10.828Z,2.53
2023-06-11T18:04:37.592Z,2.00
2023-06-11T18:07:05.247Z,2.20
2023-06-11T18:09:32.064Z,1.90
2023-06-11T18:11:58.878Z,1.85
2023-06-11T18:14:25.675Z,1.92
2023-06-11T18:16:54.460Z,1.60
2023-06-11T18:19:21.476Z,2.13
2023-06-11T18:21:48.362Z,1.45
2023-06-11T18:24:15.457Z,1.45
2023-06-11T18:26:42.396Z,1.80
2023-06-11T18:29:09.736Z,1.70
2023-06-11T18:31:36.544Z,1.63
2023-06-11T18:34:03.592Z,1.30
2023-06-11T18:36:30.551Z,1.42
2023-06-11T18:38:57.671Z,1.20
2023-06-11T18:41:24.541Z,1.10
2023-06-11T18:43:51.592Z,1.13
2023-06-11T18:46:18.653Z,1.20
2023-06-11T18:48:45.715Z,1.33
2023-06-11T18:51:13.968Z,1.63
2023-06-11T18:53:40.804Z,1.50
2023-06-11T18:56:07.578Z,1.50
2023-06-11T18:58:34.509Z,1.63
2023-06-11T19:01:01.519Z,1.60
2023-06-11T19:03:28.461Z,1.55
2023-06-11T19:05:55.468Z,1.70
2023-06-11T19:08:22.269Z,2.10
2023-06-11T19:10:49.731Z,1.90
2023-06-11T19:13:19.980Z,1.95
2023-06-11T19:15:47.263Z,1.90
2023-06-11T19:18:15.140Z,2.10
2023-06-11T19:20:42.215Z,2.00
2023-06-11T19:23:11.028Z,2.00
2023-06-11T19:25:37.930Z,2.00
2023-06-11T19:28:04.984Z,1.88
2023-06-11T19:30:32.080Z,1.90
2023-06-11T19:32:59.024Z,2.33
2023-06-11T19:35:25.934Z,2.00
2023-06-11T19:37:52.814Z,1.98
2023-06-11T19:40:19.739Z,1.90
2023-06-11T19:42:46.571Z,1.92
2023-06-11T19:45:17.203Z,1.80
2023-06-11T19:47:44.009Z,1.90
2023-06-11T19:50:11.939Z,1.80
2023-06-11T19:52:39.100Z,1.85
2023-06-11T19:55:06.352Z,2.05
2023-06-11T19:57:33.249Z,2.10
2023-06-11T20:00:00.641Z,1.90
2023-06-11T20:02:27.942Z,2.10
2023-06-11T20:04:55.038Z,2.30
2023-06-11T20:07:21.950Z,2.05
2023-06-11T20:09:48.890Z,2.00
2023-06-11T20:12:15.793Z,1.75
2023-06-11T20:14:42.548Z,1.98
2023-06-11T20:17:09.371Z,2.22
2023-06-11T20:19:37.060Z,1.92
2023-06-11T20:22:07.313Z,1.90
2023-06-11T20:24:34.302Z,2.20
2023-06-11T20:27:01.306Z,2.28
2023-06-11T20:29:28.056Z,1.90
2023-06-11T20:31:55.117Z,2.03
2023-06-11T20:34:21.974Z,1.92
2023-06-11T20:36:48.889Z,2.00
2023-06-11T20:39:15.695Z,1.85
2023-06-11T20:41:42.716Z,1.92
2023-06-11T20:44:09.764Z,2.00
2023-06-11T20:46:36.637Z,1.90
2023-06-11T20:49:03.703Z,2.03
2023-06-11T20:51:30.510Z,1.70
2023-06-11T20:53:57.386Z,1.83
2023-06-11T20:56:24.199Z,1.85
2023-06-11T20:58:51.202Z,1.83
2023-06-11T21:01:18.111Z,1.52
2023-06-11T21:03:45.195Z,1.85
2023-06-11T21:06:12.161Z,1.90
2023-06-11T21:08:38.992Z,1.85
2023-06-11T21:11:06.893Z,1.90
2023-06-11T21:13:33.882Z,1.80
2023-06-11T21:16:00.723Z,1.60
2023-06-11T21:18:27.646Z,1.98
2023-06-11T21:20:54.424Z,1.50
2023-06-11T21:23:22.243Z,1.83
2023-06-11T21:25:49.850Z,1.70
2023-06-11T21:28:16.701Z,1.58
2023-06-11T21:30:44.105Z,1.85
2023-06-11T21:33:11.120Z,1.98
2023-06-11T21:35:37.910Z,1.92
2023-06-11T21:38:04.656Z,1.80
2023-06-11T21:50:14.923Z,1.95
2023-06-11T21:52:42.315Z,1.88
2023-06-11T21:55:09.435Z,1.95
2023-06-11T21:57:36.319Z,1.80
2023-06-11T22:00:11.737Z,2.00
2023-06-11T22:02:42.933Z,1.90
2023-06-11T22:05:10.798Z,1.85
2023-06-11T22:07:38.315Z,1.63
2023-06-11T22:10:05.641Z,1.70
2023-06-11T22:12:42.928Z,1.95
2023-06-11T22:15:11.666Z,1.70
2023-06-11T22:17:40.319Z,2.28
2023-06-11T22:20:09.182Z,1.88
2023-06-11T22:22:38.361Z,1.80
2023-06-11T22:25:05.930Z,1.95
2023-06-11T22:27:33.459Z,2.20
2023-06-11T22:30:00.477Z,2.08
2023-06-11T22:32:27.718Z,1.70
2023-06-11T22:34:54.783Z,1.80
2023-06-11T22:37:21.762Z,1.98
2023-06-11T22:39:48.641Z,2.13
2023-06-11T22:42:15.674Z,1.98
2023-06-11T22:44:42.525Z,1.83
2023-06-11T22:47:11.068Z,1.80
2023-06-11T22:49:39.227Z,1.98
2023-06-11T22:52:09.022Z,1.75
2023-06-11T22:54:39.660Z,1.88
2023-06-11T22:57:09.629Z,1.70
2023-06-11T22:59:36.409Z,2.22
2023-06-11T23:02:03.551Z,2.08
2023-06-11T23:04:34.018Z,2.13
2023-06-11T23:07:03.107Z,2.10
2023-06-11T23:09:30.595Z,1.95
2023-06-11T23:11:57.545Z,2.25
2023-06-11T23:14:24.721Z,2.03
2023-06-11T23:16:51.658Z,1.95
2023-06-11T23:19:23.700Z,2.08
2023-06-11T23:21:51.768Z,2.10
2023-06-11T23:24:19.017Z,2.10
2023-06-11T23:26:46.691Z,2.00
2023-06-11T23:29:13.634Z,2.10
2023-06-11T23:31:40.759Z,2.10
2023-06-11T23:34:10.769Z,2.00
2023-06-11T23:36:41.239Z,2.10
2023-06-11T23:39:10.514Z,1.90
2023-06-11T23:41:37.615Z,2.30
2023-06-11T23:44:05.048Z,2.00
2023-06-11T23:46:33.917Z,2.30
2023-06-11T23:49:01.303Z,2.05
2023-06-11T23:51:29.252Z,2.30
2023-06-11T23:53:56.367Z,2.10
2023-06-11T23:56:23.325Z,2.38
2023-06-11T23:58:50.480Z,2.40
